TimeEST,TemperatureF,Dew PointF,Humidity,Sea Level PressureIn,VisibilityMPH,Wind Direction,Wind SpeedMPH,Gust SpeedMPH,PrecipitationIn,Events,Conditions,WindDirDegrees,DateUTC
12:53 AM,30.9,25.0,79,30.14,10.0,SE,4.6,-,N/A,,Overcast,130,2012-12-28 05:53:00
1:53 AM,30.0,24.1,79,30.15,10.0,South,5.8,-,N/A,,Overcast,170,2012-12-28 06:53:00
2:53 AM,30.0,24.1,79,30.15,10.0,ESE,5.8,-,N/A,,Overcast,120,2012-12-28 07:53:00
3:53 AM,30.0,24.1,79,30.14,10.0,ESE,6.9,-,N/A,,Overcast,110,2012-12-28 08:53:00
4:53 AM,30.0,24.1,79,30.13,10.0,SE,5.8,-,N/A,,Overcast,130,2012-12-28 09:53:00
5:53 AM,30.0,24.1,79,30.10,10.0,East,6.9,-,N/A,,Overcast,90,2012-12-28 10:53:00
6:53 AM,30.0,25.0,82,30.10,10.0,East,5.8,-,N/A,,Overcast,100,2012-12-28 11:53:00
7:53 AM,30.0,25.0,82,30.10,10.0,East,4.6,-,N/A,,Overcast,90,2012-12-28 12:53:00
8:53 AM,30.0,25.0,82,30.12,10.0,SE,4.6,-,N/A,,Overcast,140,2012-12-28 13:53:00
9:53 AM,30.9,26.1,82,30.14,10.0,ESE,4.6,-,N/A,,Overcast,110,2012-12-28 14:53:00
10:19 AM,32.0,26.6,80,30.10,10.0,ESE,5.8,-,N/A,,Overcast,110,2012-12-28 15:19:00
10:53 AM,33.1,27.0,78,30.14,10.0,ESE,3.5,-,N/A,,Overcast,120,2012-12-28 15:53:00
11:53 AM,34.0,28.0,79,30.12,10.0,SSE,5.8,-,N/A,,Overcast,150,2012-12-28 16:53:00
12:22 PM,33.8,28.4,81,30.04,10.0,SE,4.6,-,N/A,,Overcast,140,2012-12-28 17:22:00
1:53 PM,35.1,28.9,78,30.00,10.0,East,5.8,-,N/A,,Overcast,90,2012-12-28 18:53:00
2:53 PM,36.0,28.9,76,29.99,10.0,South,3.5,-,N/A,,Mostly Cloudy,170,2012-12-28 19:53:00
3:33 PM,35.6,28.4,75,29.95,10.0,SE,3.5,-,N/A,,Scattered Clouds,130,2012-12-28 20:33:00
3:53 PM,36.0,28.9,76,29.97,10.0,ESE,5.8,-,N/A,,Scattered Clouds,110,2012-12-28 20:53:00
4:53 PM,36.0,30.0,79,29.98,10.0,SE,4.6,-,N/A,,Overcast,140,2012-12-28 21:53:00
5:53 PM,37.0,30.0,76,29.95,10.0,East,3.5,-,N/A,,Overcast,80,2012-12-28 22:53:00
6:53 PM,37.0,30.0,76,29.94,10.0,East,3.5,-,N/A,,Overcast,80,2012-12-28 23:53:00
7:53 PM,34.0,32.0,92,29.91,4.0,ENE,8.1,-,0.01,Snow,Light Snow,70,2012-12-29 00:53:00
8:26 PM,33.8,32.0,93,29.87,5.0,East,6.9,-,0.01,Snow,Light Snow,80,2012-12-29 01:26:00
8:53 PM,34.0,32.0,92,29.89,6.0,East,5.8,-,0.01,Snow,Light Snow,80,2012-12-29 01:53:00
9:53 PM,33.1,32.0,96,29.85,2.5,East,8.1,-,0.02,Snow,Light Snow,90,2012-12-29 02:53:00
10:00 PM,33.8,32.0,93,29.82,2.5,East,8.1,-,0.00,Snow,Light Snow,80,2012-12-29 03:00:00
10:08 PM,33.8,32.0,93,29.82,2.0,East,5.8,-,0.01,Snow,Light Snow,80,2012-12-29 03:08:00
10:17 PM,33.8,32.0,93,29.83,2.5,East,4.6,-,0.01,Snow,Light Snow,80,2012-12-29 03:17:00
10:20 PM,33.8,32.0,93,29.83,3.0,ENE,3.5,-,0.01,Snow,Light Snow,70,2012-12-29 03:20:00
10:25 PM,33.8,32.0,93,29.84,2.5,Calm,Calm,-,0.01,Snow,Light Snow,0,2012-12-29 03:25:00
10:32 PM,33.8,32.0,93,29.85,2.0,Calm,Calm,-,0.02,Snow,Light Snow,0,2012-12-29 03:32:00
10:39 PM,33.8,32.0,93,29.83,1.2,NE,3.5,-,0.04,Snow,Light Snow,50,2012-12-29 03:39:00
10:53 PM,32.0,32.0,100,29.84,1.0,ENE,4.6,-,0.06,Snow,Light Snow,70,2012-12-29 03:53:00
11:23 PM,32.0,32.0,100,29.80,0.8,Calm,Calm,-,0.06,Snow,Light Snow,0,2012-12-29 04:23:00
11:49 PM,32.0,32.0,100,29.79,1.0,Calm,Calm,-,0.12,Snow,Light Snow,0,2012-12-29 04:49:00
11:53 PM,32.0,32.0,100,29.81,1.0,Calm,Calm,-,0.12,Snow,Light Snow,0,2012-12-29 04:53:00